createdAt,value
2022-08-14T00:02:15.623Z,6.05
2022-08-14T00:04:45.463Z,6.70
2022-08-14T00:07:13.883Z,5.82
2022-08-14T00:10:02.257Z,6.57
2022-08-14T00:12:42.115Z,6.28
2022-08-14T00:15:15.337Z,6.00
2022-08-14T00:17:48.061Z,6.10
2022-08-14T00:20:30.379Z,6.85
2022-08-14T00:23:12.228Z,6.07
2022-08-14T00:25:53.858Z,6.13
2022-08-14T00:28:34.860Z,6.43
2022-08-14T00:31:04.712Z,6.72
2022-08-14T00:33:50.776Z,6.30
2022-08-14T00:36:35.277Z,6.15
2022-08-14T00:39:12.045Z,6.53
2022-08-14T00:41:39.471Z,6.30
2022-08-14T00:44:10.028Z,6.28
2022-08-14T00:46:38.632Z,6.47
2022-08-14T00:49:08.162Z,6.25
2022-08-14T00:51:44.174Z,6.18
2022-08-14T00:54:21.447Z,6.82
2022-08-14T00:56:55.504Z,6.65
2022-08-14T00:59:28.645Z,7.50
2022-08-14T01:01:58.627Z,7.20
2022-08-14T01:04:37.650Z,7.15
2022-08-14T01:07:20.623Z,8.07
2022-08-14T01:09:53.180Z,8.00
2022-08-14T01:12:27.280Z,7.97
2022-08-14T01:14:58.890Z,8.50
2022-08-14T01:17:51.787Z,8.15
2022-08-14T01:20:40.699Z,8.90
2022-08-14T01:23:16.021Z,8.45
2022-08-14T01:25:47.150Z,9.43
2022-08-14T01:28:46.958Z,9.07
2022-08-14T01:31:02.111Z,8.88
2022-08-14T01:33:30.405Z,9.50
2022-08-14T01:36:05.563Z,9.35
2022-08-14T01:38:49.104Z,9.15
2022-08-14T01:41:22.871Z,9.10
2022-08-14T01:44:01.463Z,9.10
2022-08-14T01:46:37.498Z,9.63
2022-08-14T01:49:11.346Z,8.82
2022-08-14T01:51:41.687Z,8.63
2022-08-14T01:54:21.251Z,9.27
2022-08-14T01:56:59.012Z,8.85
2022-08-14T01:59:37.515Z,8.80
2022-08-14T02:02:19.646Z,8.95
2022-08-14T02:04:55.223Z,9.73
2022-08-14T02:07:34.163Z,8.52
2022-08-14T02:10:13.136Z,8.45
2022-08-14T02:12:46.171Z,8.70
2022-08-14T02:15:21.986Z,9.30
2022-08-14T02:17:50.822Z,8.73
2022-08-14T02:20:23.334Z,8.73
2022-08-14T02:22:54.851Z,8.85
2022-08-14T02:25:23.100Z,9.07
2022-08-14T02:28:22.295Z,9.35
2022-08-14T02:30:38.280Z,9.32
2022-08-14T02:33:07.276Z,9.02
2022-08-14T02:35:40.657Z,8.80
2022-08-14T02:38:11.803Z,9.80
2022-08-14T02:40:56.135Z,10.52
2022-08-14T02:43:23.565Z,10.43
2022-08-14T02:45:50.849Z,10.73
2022-08-14T02:49:03.870Z,9.45
2022-08-14T02:51:09.119Z,10.07
2022-08-14T02:53:39.775Z,10.57
2022-08-14T02:56:30.383Z,10.57
2022-08-14T02:59:01.347Z,11.77
2022-08-14T03:01:31.102Z,11.68
2022-08-14T03:03:59.356Z,11.80
2022-08-14T03:06:35.161Z,12.63
2022-08-14T03:09:15.223Z,12.20
2022-08-14T03:11:44.726Z,12.25
2022-08-14T03:14:15.562Z,13.25
2022-08-14T03:16:45.627Z,12.60
2022-08-14T03:19:19.748Z,13.27
2022-08-14T03:21:47.259Z,12.75
2022-08-14T03:24:23.687Z,12.40
2022-08-14T03:26:57.402Z,13.18
2022-08-14T03:29:26.264Z,13.10
2022-08-14T03:31:54.721Z,13.65
2022-08-14T03:34:24.965Z,12.65
2022-08-14T03:37:51.642Z,12.60
2022-08-14T03:40:00.518Z,12.98
2022-08-14T03:42:35.668Z,13.82
2022-08-14T03:45:18.905Z,12.95
2022-08-14T03:47:58.574Z,13.20
2022-08-14T03:50:31.514Z,13.50
2022-08-14T03:53:01.950Z,14.10
2022-08-14T03:55:30.243Z,13.63
2022-08-14T03:58:00.418Z,14.85
2022-08-14T04:00:43.575Z,14.35
2022-08-14T04:03:18.079Z,13.90
2022-08-14T04:05:48.508Z,14.15
2022-08-14T04:08:23.004Z,14.73
2022-08-14T04:10:59.416Z,14.40
2022-08-14T04:13:31.713Z,15.15
2022-08-14T04:18:45.337Z,15.43
2022-08-14T04:21:14.869Z,15.43
2022-08-14T04:23:45.302Z,16.58
2022-08-14T04:26:27.188Z,16.60
2022-08-14T04:29:14.344Z,15.52
2022-08-14T04:32:57.639Z,15.75
2022-08-14T04:34:30.928Z,16.13
2022-08-14T04:37:24.502Z,16.13
2022-08-14T04:40:12.197Z,15.85
2022-08-14T04:42:58.390Z,16.75
2022-08-14T04:45:36.329Z,15.85
2022-08-14T04:48:13.676Z,16.08
2022-08-14T04:51:01.943Z,17.30
2022-08-14T04:53:34.541Z,16.90
2022-08-14T04:56:04.245Z,15.95
2022-08-14T04:58:39.022Z,17.02
2022-08-14T05:01:13.032Z,16.85
2022-08-14T05:03:47.163Z,16.60
2022-08-14T05:06:37.871Z,17.20
2022-08-14T05:09:02.082Z,17.10
2022-08-14T05:11:34.573Z,17.05
2022-08-14T05:14:34.017Z,16.38
2022-08-14T05:16:52.187Z,15.95
2022-08-14T05:19:24.964Z,15.70
2022-08-14T05:22:16.100Z,15.07
2022-08-14T05:24:51.362Z,16.05
2022-08-14T05:27:23.042Z,15.82
2022-08-14T05:29:53.610Z,16.33
2022-08-14T05:32:21.638Z,16.23
2022-08-14T05:34:50.147Z,16.92
2022-08-14T05:37:17.397Z,15.75
2022-08-14T05:39:47.414Z,16.30
2022-08-14T05:42:22.132Z,16.38
2022-08-14T05:44:55.737Z,15.77
2022-08-14T05:47:24.162Z,17.35
2022-08-14T05:52:38.467Z,16.90
2022-08-14T05:55:09.535Z,16.25
2022-08-14T05:58:00.287Z,17.77
2022-08-14T06:00:38.812Z,17.55
2022-08-14T06:03:09.234Z,16.85
2022-08-14T06:05:38.673Z,16.83
2022-08-14T06:08:36.101Z,16.58
2022-08-14T06:11:07.144Z,17.75
2022-08-14T06:13:45.077Z,17.08
2022-08-14T06:16:17.395Z,16.98
2022-08-14T06:18:48.723Z,16.05
2022-08-14T06:21:21.387Z,16.35
2022-08-14T06:23:49.842Z,15.77
2022-08-14T06:26:20.904Z,15.73
2022-08-14T06:28:52.060Z,13.98
2022-08-14T06:31:20.964Z,14.07
2022-08-14T06:35:03.055Z,13.02
2022-08-14T06:36:38.026Z,9.88
2022-08-14T06:39:10.175Z,9.63
2022-08-14T06:41:59.209Z,8.93
2022-08-14T06:44:30.890Z,9.18
2022-08-14T06:47:01.475Z,8.60
2022-08-14T06:49:30.409Z,8.27
2022-08-14T06:51:58.037Z,8.10
2022-08-14T06:54:31.764Z,7.72
2022-08-14T06:56:59.420Z,8.00
2022-08-14T06:59:27.082Z,7.70
2022-08-14T07:02:17.707Z,7.20
2022-08-14T07:05:05.539Z,8.05
2022-08-14T07:07:39.112Z,7.60
2022-08-14T07:10:07.976Z,7.43
2022-08-14T07:13:00.695Z,7.22
2022-08-14T07:15:39.879Z,7.70
2022-08-14T07:18:10.533Z,7.90
2022-08-14T07:20:38.617Z,7.57
2022-08-14T07:23:10.973Z,7.40
2022-08-14T07:25:42.185Z,8.27
2022-08-14T07:28:23.904Z,8.50
2022-08-14T07:30:57.691Z,8.00
2022-08-14T07:33:36.446Z,8.40
2022-08-14T07:36:26.438Z,7.97
2022-08-14T07:38:54.980Z,8.07
2022-08-14T07:41:23.516Z,7.30
2022-08-14T07:43:55.346Z,8.20
2022-08-14T07:46:28.470Z,7.85
2022-08-14T07:48:57.169Z,8.13
2022-08-14T07:51:26.014Z,7.88
2022-08-14T07:54:00.717Z,8.23
2022-08-14T07:56:44.214Z,8.13
2022-08-14T07:59:18.112Z,8.07
2022-08-14T08:01:48.349Z,7.28
2022-08-14T08:04:25.278Z,8.13
2022-08-14T08:06:54.987Z,7.07
2022-08-14T08:09:29.885Z,7.22
2022-08-14T08:12:05.009Z,7.32
2022-08-14T08:14:56.458Z,7.35
2022-08-14T08:17:24.776Z,7.35
2022-08-14T08:19:52.409Z,7.18
2022-08-14T08:22:21.312Z,7.35
2022-08-14T08:24:50.352Z,7.20
2022-08-14T08:27:19.919Z,6.45
2022-08-14T08:29:50.744Z,6.35
2022-08-14T08:32:18.737Z,6.70
2022-08-14T08:34:46.939Z,5.95
2022-08-14T08:37:14.846Z,6.75
2022-08-14T08:40:02.697Z,5.72
2022-08-14T08:42:38.415Z,6.43
2022-08-14T08:45:12.040Z,6.65
2022-08-14T08:47:40.654Z,5.95
2022-08-14T08:50:23.450Z,6.82
2022-08-14T08:53:06.533Z,6.72
2022-08-14T08:55:38.879Z,6.25
2022-08-14T08:58:16.041Z,5.82
2022-08-14T09:00:49.063Z,6.55
2022-08-14T09:03:20.704Z,5.90
2022-08-14T09:06:56.905Z,5.72
2022-08-14T09:08:53.798Z,6.03
2022-08-14T09:11:24.600Z,6.97
2022-08-14T09:13:53.507Z,7.43
2022-08-14T09:16:26.079Z,6.70
2022-08-14T09:18:54.880Z,6.70
2022-08-14T09:21:24.203Z,6.30
2022-08-14T09:24:28.336Z,6.90
2022-08-14T09:26:44.433Z,6.35
2022-08-14T09:29:17.926Z,6.20
2022-08-14T09:31:53.433Z,6.38
2022-08-14T09:34:28.098Z,6.63
2022-08-14T09:37:28.828Z,5.40
2022-08-14T09:40:21.288Z,6.38
2022-08-14T09:43:05.742Z,5.60
2022-08-14T09:45:53.409Z,5.38
2022-08-14T09:48:29.888Z,5.43
2022-08-14T09:54:17.692Z,6.00
2022-08-14T09:56:56.665Z,6.18
2022-08-14T09:59:27.971Z,6.57
2022-08-14T10:01:57.436Z,6.55
2022-08-14T10:04:36.074Z,6.15
2022-08-14T10:07:08.108Z,6.90
2022-08-14T10:09:57.595Z,7.57
2022-08-14T10:12:52.959Z,6.10
2022-08-14T10:15:25.050Z,6.35
2022-08-14T10:18:09.615Z,6.63
2022-08-14T10:23:27.876Z,5.90
2022-08-14T10:26:06.769Z,5.80
2022-08-14T10:29:17.840Z,5.90
2022-08-14T10:31:44.599Z,5.18
2022-08-14T10:34:14.338Z,5.20
2022-08-14T10:36:47.813Z,5.65
2022-08-14T10:39:21.746Z,5.00
2022-08-14T10:41:53.979Z,4.78
2022-08-14T10:44:29.558Z,4.97
2022-08-14T10:47:41.066Z,5.50
2022-08-14T10:50:00.882Z,4.97
2022-08-14T10:52:33.996Z,4.88
2022-08-14T10:55:16.455Z,4.85
2022-08-14T10:57:57.486Z,4.90
2022-08-14T11:00:29.943Z,4.70
2022-08-14T11:03:13.270Z,5.20
2022-08-14T11:05:55.001Z,4.55
2022-08-14T11:08:34.292Z,4.10
2022-08-14T11:11:05.399Z,4.35
2022-08-14T11:13:33.095Z,4.30
2022-08-14T11:16:03.173Z,4.63
2022-08-14T11:18:36.003Z,5.03
2022-08-14T11:21:08.312Z,4.60
2022-08-14T11:23:43.771Z,4.43
2022-08-14T11:26:14.158Z,4.00
2022-08-14T11:28:47.570Z,4.25
2022-08-14T11:31:20.199Z,4.35
2022-08-14T11:33:55.309Z,3.87
2022-08-14T11:36:35.491Z,4.00
2022-08-14T11:39:34.570Z,3.85
2022-08-14T11:42:58.833Z,3.53
2022-08-14T11:45:00.791Z,3.22
2022-08-14T11:47:35.378Z,3.53
2022-08-14T11:50:36.901Z,3.83
2022-08-14T11:53:06.845Z,3.60
2022-08-14T11:55:39.586Z,3.90
2022-08-14T11:58:10.549Z,3.70
2022-08-14T12:00:59.955Z,3.92
2022-08-14T12:03:46.744Z,3.58
2022-08-14T12:06:29.125Z,4.03
2022-08-14T12:09:03.433Z,3.75
2022-08-14T12:11:44.181Z,3.58
2022-08-14T12:14:30.532Z,3.55
2022-08-14T12:17:12.969Z,3.40
2022-08-14T12:19:54.217Z,3.65
2022-08-14T12:22:34.506Z,3.50
2022-08-14T12:25:08.444Z,4.28
2022-08-14T12:27:52.493Z,4.18
2022-08-14T12:30:53.682Z,4.15
2022-08-14T12:33:33.854Z,4.05
2022-08-14T12:36:06.033Z,4.75
2022-08-14T12:38:45.708Z,4.35
2022-08-14T12:41:21.101Z,4.05
2022-08-14T12:44:01.758Z,4.72
2022-08-14T12:46:36.343Z,4.35
2022-08-14T12:49:17.021Z,4.30
2022-08-14T12:51:55.966Z,4.07
2022-08-14T12:54:27.223Z,4.10
2022-08-14T12:57:08.027Z,3.88
2022-08-14T12:59:37.060Z,3.80
2022-08-14T13:02:26.428Z,3.72
2022-08-14T13:04:58.119Z,3.63
2022-08-14T13:07:32.012Z,3.85
2022-08-14T13:10:12.874Z,3.63
2022-08-14T13:13:11.988Z,3.58
2022-08-14T13:15:40.357Z,3.90
2022-08-14T13:18:11.484Z,3.50
2022-08-14T13:20:44.145Z,3.92
2022-08-14T13:23:19.656Z,3.40
2022-08-14T13:25:58.524Z,3.45
2022-08-14T13:28:32.653Z,3.70
2022-08-14T13:31:08.939Z,3.40
2022-08-14T13:33:40.912Z,3.70
2022-08-14T13:36:24.307Z,3.70
2022-08-14T13:39:00.706Z,3.65
2022-08-14T13:41:34.711Z,3.58
2022-08-14T13:44:04.127Z,3.67
2022-08-14T13:46:31.567Z,3.97
2022-08-14T13:48:59.802Z,3.33
2022-08-14T13:51:29.915Z,3.50
2022-08-14T13:54:09.920Z,3.70
2022-08-14T13:56:40.332Z,3.93
2022-08-14T13:59:08.818Z,3.70
2022-08-14T14:01:43.834Z,3.83
2022-08-14T14:04:19.213Z,3.65
2022-08-14T14:06:50.980Z,4.07
2022-08-14T14:09:32.480Z,4.30
2022-08-14T14:12:07.980Z,3.95
2022-08-14T14:14:59.021Z,3.90
2022-08-14T14:17:34.194Z,3.80
2022-08-14T14:20:04.416Z,4.18
2022-08-14T14:23:00.803Z,3.75
2022-08-14T14:25:22.023Z,4.03
2022-08-14T14:27:51.338Z,3.80
2022-08-14T14:30:52.126Z,3.92
2022-08-14T14:33:42.323Z,4.38
2022-08-14T14:36:01.677Z,4.10
2022-08-14T14:38:33.561Z,3.95
2022-08-14T14:41:02.561Z,3.95
2022-08-14T14:43:30.680Z,4.07
2022-08-14T14:45:58.519Z,4.20
2022-08-14T14:48:29.188Z,4.03
2022-08-14T14:51:01.447Z,4.40
2022-08-14T14:53:31.851Z,4.30
2022-08-14T14:56:50.317Z,4.22
2022-08-14T14:58:58.434Z,4.18
2022-08-14T15:01:26.573Z,3.90
2022-08-14T15:03:55.446Z,4.07
2022-08-14T15:06:30.415Z,4.10
2022-08-14T15:09:02.244Z,3.97
2022-08-14T15:11:33.299Z,4.27
2022-08-14T15:14:01.070Z,4.00
2022-08-14T15:16:29.257Z,4.10
2022-08-14T15:18:56.536Z,4.25
2022-08-14T15:21:25.073Z,4.00
2022-08-14T15:23:53.171Z,4.03
2022-08-14T15:26:30.976Z,4.18
2022-08-14T15:29:07.162Z,4.38
2022-08-14T15:31:37.567Z,4.15
2022-08-14T15:34:43.135Z,3.67
2022-08-14T15:37:02.160Z,4.20
2022-08-14T15:39:35.787Z,4.13
2022-08-14T15:42:09.300Z,4.20
2022-08-14T15:44:56.843Z,4.03
2022-08-14T15:47:28.318Z,4.38
2022-08-14T15:50:01.523Z,4.47
2022-08-14T15:52:34.622Z,4.05
2022-08-14T15:55:09.001Z,4.10
2022-08-14T15:57:37.032Z,4.78
2022-08-14T16:00:44.438Z,3.70
2022-08-14T16:03:18.095Z,4.50
2022-08-14T16:05:52.877Z,4.20
2022-08-14T16:08:29.304Z,4.43
2022-08-14T16:11:00.000Z,4.30
2022-08-14T16:13:39.511Z,4.32
2022-08-14T16:16:49.786Z,4.10
2022-08-14T16:19:09.993Z,4.70
2022-08-14T16:21:40.663Z,4.20
2022-08-14T16:24:28.078Z,4.25
2022-08-14T16:27:00.860Z,4.22
2022-08-14T16:29:33.023Z,3.97
2022-08-14T16:32:33.291Z,4.38
2022-08-14T16:34:54.869Z,4.38
2022-08-14T16:37:23.313Z,4.40
2022-08-14T16:39:59.315Z,4.40
2022-08-14T16:43:02.702Z,4.63
2022-08-14T16:45:18.631Z,4.47
2022-08-14T16:47:47.843Z,4.72
2022-08-14T16:53:07.365Z,4.35
2022-08-14T16:55:53.805Z,4.85
2022-08-14T16:58:28.950Z,4.63
2022-08-14T17:01:24.810Z,4.43
2022-08-14T17:04:06.589Z,4.97
2022-08-14T17:06:51.011Z,4.63
2022-08-14T17:09:27.991Z,4.80
2022-08-14T17:12:07.667Z,4.88
2022-08-14T17:15:10.553Z,4.75
2022-08-14T17:17:42.977Z,4.78
2022-08-14T17:21:01.771Z,4.90
2022-08-14T17:23:11.369Z,4.90
2022-08-14T17:25:39.704Z,5.25
2022-08-14T17:28:51.887Z,5.07
2022-08-14T17:31:08.019Z,5.07
2022-08-14T17:33:44.264Z,4.63
2022-08-14T17:36:22.871Z,5.20
2022-08-14T17:42:02.864Z,5.28
2022-08-14T17:44:33.674Z,4.68
2022-08-14T17:47:14.519Z,4.70
2022-08-14T17:49:47.493Z,5.10
2022-08-14T17:52:35.871Z,4.55
2022-08-14T17:55:12.740Z,5.20
2022-08-14T17:57:59.141Z,4.88
2022-08-14T18:00:26.599Z,5.53
2022-08-14T18:02:55.291Z,4.72
2022-08-14T18:06:09.861Z,5.28
2022-08-14T18:08:32.019Z,5.25
2022-08-14T18:11:00.242Z,5.80
2022-08-14T18:13:49.685Z,5.05
2022-08-14T18:16:20.356Z,5.50
2022-08-14T18:18:51.215Z,5.57
2022-08-14T18:21:42.399Z,5.25
2022-08-14T18:24:28.687Z,5.45
2022-08-14T18:27:06.825Z,5.28
2022-08-14T18:29:55.564Z,5.55
2022-08-14T18:32:32.070Z,5.38
2022-08-14T18:35:03.630Z,5.28
2022-08-14T18:37:39.783Z,5.40
2022-08-14T18:40:17.879Z,5.15
2022-08-14T18:43:02.168Z,5.57
2022-08-14T18:45:33.869Z,5.80
2022-08-14T18:48:18.531Z,5.57
2022-08-14T18:51:01.413Z,5.78
2022-08-14T18:53:34.304Z,5.60
2022-08-14T18:56:09.657Z,5.82
2022-08-14T18:58:58.676Z,5.07
2022-08-14T19:01:33.405Z,5.65
2022-08-14T19:04:02.421Z,6.30
2022-08-14T19:06:44.705Z,6.10
2022-08-14T19:09:50.806Z,5.65
2022-08-14T19:13:00.431Z,6.03
2022-08-14T19:15:31.343Z,5.50
2022-08-14T19:18:14.107Z,5.93
2022-08-14T19:21:13.524Z,6.15
2022-08-14T19:23:44.049Z,6.50
2022-08-14T19:26:36.075Z,6.72
2022-08-14T19:29:37.712Z,6.35
2022-08-14T19:32:36.512Z,6.00
2022-08-14T19:35:55.568Z,6.40
2022-08-14T19:38:44.216Z,6.45
2022-08-14T19:41:16.561Z,6.95
2022-08-14T19:43:56.110Z,6.50
2022-08-14T19:46:37.608Z,6.28
2022-08-14T19:49:05.934Z,7.20
2022-08-14T19:51:45.112Z,6.80
2022-08-14T19:54:13.866Z,6.70
2022-08-14T19:56:45.123Z,7.40
2022-08-14T19:59:18.283Z,6.93
2022-08-14T20:01:49.678Z,7.25
2022-08-14T20:04:46.022Z,6.17
2022-08-14T20:07:59.001Z,6.82
2022-08-14T20:11:03.118Z,6.72
2022-08-14T20:13:14.833Z,6.90
2022-08-14T20:15:51.503Z,6.93
2022-08-14T20:18:49.211Z,6.85
2022-08-14T20:21:14.906Z,6.75
2022-08-14T20:23:42.589Z,6.75
2022-08-14T20:26:31.308Z,7.00
2022-08-14T20:29:05.133Z,7.18
2022-08-14T20:31:37.891Z,7.05
2022-08-14T20:34:24.432Z,6.82
2022-08-14T20:39:33.978Z,6.95
2022-08-14T20:42:33.450Z,7.03
2022-08-14T20:45:19.765Z,6.90
2022-08-14T20:47:58.478Z,7.22
2022-08-14T20:50:29.741Z,7.57
2022-08-14T20:53:05.670Z,7.55
2022-08-14T20:55:41.209Z,7.70
2022-08-14T20:58:09.860Z,8.02
2022-08-14T21:01:19.779Z,7.25
2022-08-14T21:03:58.394Z,8.10
2022-08-14T21:06:31.096Z,7.60
2022-08-14T21:09:19.280Z,8.23
2022-08-14T21:12:02.534Z,8.75
2022-08-14T21:14:30.544Z,8.50
2022-08-14T21:17:02.634Z,8.32
2022-08-14T21:19:30.201Z,8.68
2022-08-14T21:22:01.882Z,8.80
2022-08-14T21:24:40.182Z,8.68
2022-08-14T21:27:20.079Z,8.07
2022-08-14T21:29:55.192Z,8.65
2022-08-14T21:32:35.091Z,8.73
2022-08-14T21:35:08.057Z,8.98
2022-08-14T21:37:43.965Z,8.45
2022-08-14T21:40:39.934Z,9.25
2022-08-14T21:43:17.198Z,9.27
2022-08-14T21:45:53.558Z,8.88
2022-08-14T21:48:26.290Z,8.52
2022-08-14T21:50:59.955Z,8.73
2022-08-14T21:53:31.179Z,9.38
2022-08-14T21:55:59.202Z,8.70
2022-08-14T21:58:51.415Z,9.07
2022-08-14T22:01:19.337Z,9.13
2022-08-14T22:03:55.479Z,8.52
2022-08-14T22:06:28.546Z,8.85
2022-08-14T22:08:58.317Z,9.32
2022-08-14T22:11:27.333Z,9.10
2022-08-14T22:14:02.102Z,9.63
2022-08-14T22:17:03.459Z,9.82
2022-08-14T22:19:47.534Z,9.15
2022-08-14T22:22:26.155Z,10.10
2022-08-14T22:25:00.267Z,10.57
2022-08-14T22:27:32.326Z,10.98
2022-08-14T22:30:00.981Z,11.17
2022-08-14T22:32:56.751Z,10.90
2022-08-14T22:35:16.631Z,11.38
2022-08-14T22:37:45.094Z,12.32
2022-08-14T22:40:56.852Z,12.20
2022-08-14T22:43:08.298Z,11.88
2022-08-14T22:45:38.048Z,12.60
2022-08-14T22:48:10.762Z,11.27
2022-08-14T22:50:53.221Z,12.50
2022-08-14T22:53:21.710Z,13.38
2022-08-14T22:55:52.065Z,12.43
2022-08-14T22:58:30.299Z,12.82
2022-08-14T23:01:01.191Z,11.48
2022-08-14T23:03:30.380Z,11.80
2022-08-14T23:06:02.249Z,11.02
2022-08-14T23:08:58.490Z,10.85
2022-08-14T23:11:17.240Z,10.65
2022-08-14T23:13:46.292Z,10.93
2022-08-14T23:16:20.140Z,11.20
2022-08-14T23:18:54.131Z,10.88
2022-08-14T23:21:24.146Z,11.73
2022-08-14T23:23:55.026Z,13.00
2022-08-14T23:26:48.673Z,12.75
2022-08-14T23:29:11.959Z,12.80
2022-08-14T23:31:40.396Z,11.98
2022-08-14T23:34:13.479Z,11.93
2022-08-14T23:36:54.619Z,11.50
2022-08-14T23:39:31.405Z,11.38
2022-08-14T23:42:02.490Z,12.25
2022-08-14T23:47:05.521Z,10.38
2022-08-14T23:49:56.435Z,10.20
2022-08-14T23:52:55.440Z,9.93
2022-08-14T23:55:11.038Z,8.85
2022-08-14T23:57:43.701Z,9.00
